Terminal Aerodrome Forecast
Issued by NWS Topeka, KS

Home | Current Version | Previous Version | Graphics & Text | Print | Product List | Glossary On
Versions: 1 2 3 4 5 6 7 8 9 10 11 12 13 14 15 16 17 18
000
FTUS43 KTOP 221300 AAA
TAFTOP
TAF AMD
KTOP 221354Z 2214/2312 16010KT 6SM -RA BR OVC006
      TEMPO 2214/2218 2SM RA BR
     FM222000 28011KT P6SM SCT020 OVC035=

USA.gov is the U.S. government's official web portal to all federal, state and local government web resources and services.